Reynoldsville, Pennsylvania
Current Conditions -  °F | °C
As of 8:53 AM on Monday 20 Oct 2014 (Local Time) from KDUJ Reporting Station
Overcast Overcast  
Wind Chill: 42°   Ceiling: 10000
Heat Index: 42°   Visibility: 10mi
Dew Point: 36°   Wind: 3mph
Humidity: 79%   Direction: 200°SSW
Pressure: 29.99"   Gusts: NA
Location:  41.1°N, 78.89°W
Report Text: KDUJ 201253Z AUTO 20003KT 10SM OVC100 06/02 A2999 RMK AO2 SLP165 T00560022
Loading
Personal Weather Stations






























Interactive Weather Map New forecast layout! Learn more

10-Day Weather Forecast

Advertisements
Track Severe Weather on mobile